Wednesday, October 18, 2017, 5:53 PM EDT
Back to Local

KMQE, Milton Blue Hill Observ

Location: Milton, MA, United States Lat: 42.217
Local Time: 5:53 PM EDT (21:53 GMT) Lon: -71.117
Time Zone: US/Eastern Elev: 629 ft

Show me the last for .
Show Decoded

2017-10-18 16:56 METAR KMQE 182056Z AUTO 25006KT 20/03 A3022 RMK AO1 SLP245 T02000033 53002 =
2017-10-18 15:56 METAR KMQE 181956Z AUTO 26006KT 21/03 A3022 RMK AO1 SLP243 T02060033 =
2017-10-18 14:56 METAR KMQE 181856Z AUTO VRB04KT 20/03 A3022 RMK AO1 SLP243 T02000033 =
2017-10-18 13:56 METAR KMQE 181756Z AUTO 31007KT 21/05 A3022 RMK AO1 SLP243 6//// T02060050 10206
                 20072 58014 =
2017-10-18 12:56 METAR KMQE 181656Z AUTO VRB05KT 19/05 A3024 RMK AO1 SLP251 T01940050 =
2017-10-18 11:56 METAR KMQE 181556Z AUTO 31008KT 18/06 A3026 RMK AO1 SLP259 T01780056 =
2017-10-18 10:56 METAR KMQE 181456Z AUTO 27006KT 16/06 A3026 RMK AO1 SLP259 6//// T01610056 51012
                 PNO $ =
2017-10-18 09:56 METAR KMQE 181356Z AUTO 27009KT 13/04 A3026 RMK AO1 SLP259 T01330044 =
2017-10-18 08:56 METAR KMQE 181256Z AUTO 26012KT 10/03 A3024 RMK AO1 SLP254 T01000028 =
2017-10-18 07:56 METAR KMQE 181156Z AUTO 25011KT 07/02 A3022 RMK AO1 SLP248 T00720022 10083 20072
                 53008 =
2017-10-18 06:56 METAR KMQE 181056Z AUTO 24011G18KT 08/02 A3021 RMK AO1 SLP242 T00780022 $ =
2017-10-18 05:56 METAR KMQE 180956Z AUTO 24010KT 08/02 A3020 RMK AO1 SLP240 T00780022 $ =
2017-10-18 04:56 METAR KMQE 180856Z AUTO 23012KT 08/02 A3020 RMK AO1 SLP239 T00830022 $ =
2017-10-18 03:56 METAR KMQE 180756Z AUTO 22011KT 08/03 A3019 RMK AO1 SLP236 T00830028 $ =
2017-10-18 02:56 METAR KMQE 180656Z AUTO 22014G21KT 08/03 A3019 RMK AO1 SLP235 T00830028 =
2017-10-18 01:56 METAR KMQE 180556Z AUTO 22015KT 08/03 A3020 RMK AO1 SLP239 T00780028 10089 20067
                 58009 =
2017-10-18 00:56 METAR KMQE 180456Z AUTO 23014G22KT 07/02 A3021 RMK AO1 SLP245 T00720022
                 401330022 =
2017-10-17 23:56 METAR KMQE 180356Z AUTO 21014KT 07/02 A3022 RMK AO1 SLP246 T00720022 =
2017-10-17 22:56 METAR KMQE 180256Z AUTO 21012KT 07/02 A3023 RMK AO1 SLP250 T00720022 50005 =
2017-10-17 21:56 METAR KMQE 180156Z AUTO 21013KT 08/02 A3023 RMK AO1 SLP251 T00780017 =
2017-10-17 20:56 METAR KMQE 180056Z AUTO 20012KT 08/02 A3023 RMK AO1 SLP250 T00780017 =
2017-10-17 19:56 METAR KMQE 172356Z AUTO 19013G20KT 09/02 A3021 RMK AO1 SLP246 T00890017 10133
                 20083 53005 =
2017-10-17 18:56 METAR KMQE 172256Z AUTO 19013KT 09/00 A3021 RMK AO1 SLP244 T00940000 =
2017-10-17 17:56 METAR KMQE 172156Z AUTO 20008KT 11/M02 A3020 RMK AO1 SLP240 T01111022 =

Support USWX by starting your Amazon purchase here.